sensor_id;sensor_type;location;lat;lon;timestamp;P1;durP1;ratioP1;P2;durP2;ratioP2
3849;SDS011;1940;51.052;13.678;2023-11-18T00:00:15;4.47;;;2.93;;
3849;SDS011;1940;51.052;13.678;2023-11-18T00:02:42;4.13;;;3.20;;
3849;SDS011;1940;51.052;13.678;2023-11-18T00:05:08;4.83;;;3.23;;
3849;SDS011;1940;51.052;13.678;2023-11-18T00:07:35;7.03;;;3.40;;
3849;SDS011;1940;51.052;13.678;2023-11-18T00:10:00;11.30;;;4.70;;
3849;SDS011;1940;51.052;13.678;2023-11-18T00:12:26;5.60;;;3.80;;
3849;SDS011;1940;51.052;13.678;2023-11-18T00:14:51;8.97;;;4.10;;
3849;SDS011;1940;51.052;13.678;2023-11-18T00:17:17;5.63;;;3.10;;
3849;SDS011;1940;51.052;13.678;2023-11-18T00:19:43;5.70;;;3.10;;
3849;SDS011;1940;51.052;13.678;2023-11-18T00:22:09;4.93;;;3.23;;
3849;SDS011;1940;51.052;13.678;2023-11-18T00:24:36;5.87;;;3.20;;
3849;SDS011;1940;51.052;13.678;2023-11-18T00:27:01;6.77;;;3.67;;
3849;SDS011;1940;51.052;13.678;2023-11-18T00:29:33;8.50;;;3.60;;
3849;SDS011;1940;51.052;13.678;2023-11-18T00:32:02;7.00;;;3.23;;
3849;SDS011;1940;51.052;13.678;2023-11-18T00:34:28;9.93;;;4.10;;
3849;SDS011;1940;51.052;13.678;2023-11-18T00:36:54;8.30;;;4.03;;
3849;SDS011;1940;51.052;13.678;2023-11-18T00:39:23;8.40;;;3.90;;
3849;SDS011;1940;51.052;13.678;2023-11-18T00:41:49;9.57;;;5.20;;
3849;SDS011;1940;51.052;13.678;2023-11-18T00:44:15;8.63;;;4.53;;
3849;SDS011;1940;51.052;13.678;2023-11-18T00:46:40;10.40;;;4.60;;
3849;SDS011;1940;51.052;13.678;2023-11-18T00:49:06;23.60;;;6.10;;
3849;SDS011;1940;51.052;13.678;2023-11-18T00:51:32;7.60;;;4.10;;
3849;SDS011;1940;51.052;13.678;2023-11-18T00:53:58;8.87;;;4.50;;
3849;SDS011;1940;51.052;13.678;2023-11-18T00:56:25;8.70;;;4.67;;
3849;SDS011;1940;51.052;13.678;2023-11-18T00:58:51;6.53;;;4.23;;
3849;SDS011;1940;51.052;13.678;2023-11-18T01:01:17;6.50;;;4.40;;
3849;SDS011;1940;51.052;13.678;2023-11-18T01:03:46;7.07;;;4.50;;
3849;SDS011;1940;51.052;13.678;2023-11-18T01:06:12;7.93;;;4.83;;
3849;SDS011;1940;51.052;13.678;2023-11-18T01:08:38;5.77;;;3.60;;
3849;SDS011;1940;51.052;13.678;2023-11-18T01:11:03;7.57;;;4.17;;
3849;SDS011;1940;51.052;13.678;2023-11-18T01:13:30;5.77;;;3.80;;
3849;SDS011;1940;51.052;13.678;2023-11-18T01:15:56;7.30;;;4.23;;
3849;SDS011;1940;51.052;13.678;2023-11-18T01:18:22;5.00;;;3.20;;
3849;SDS011;1940;51.052;13.678;2023-11-18T01:20:48;6.53;;;3.73;;
3849;SDS011;1940;51.052;13.678;2023-11-18T01:23:13;4.73;;;3.27;;
3849;SDS011;1940;51.052;13.678;2023-11-18T01:25:39;4.83;;;3.10;;
3849;SDS011;1940;51.052;13.678;2023-11-18T01:28:05;10.10;;;3.50;;
3849;SDS011;1940;51.052;13.678;2023-11-18T01:30:31;5.97;;;3.67;;
3849;SDS011;1940;51.052;13.678;2023-11-18T01:32:57;4.80;;;3.20;;
3849;SDS011;1940;51.052;13.678;2023-11-18T01:35:26;4.77;;;2.73;;
3849;SDS011;1940;51.052;13.678;2023-11-18T01:37:52;4.60;;;3.13;;
3849;SDS011;1940;51.052;13.678;2023-11-18T01:40:17;4.00;;;2.77;;
3849;SDS011;1940;51.052;13.678;2023-11-18T01:42:44;3.93;;;2.70;;
3849;SDS011;1940;51.052;13.678;2023-11-18T01:45:11;4.40;;;2.87;;
3849;SDS011;1940;51.052;13.678;2023-11-18T01:47:38;4.23;;;2.73;;
3849;SDS011;1940;51.052;13.678;2023-11-18T01:50:05;3.13;;;2.50;;
3849;SDS011;1940;51.052;13.678;2023-11-18T01:52:33;3.90;;;2.83;;
3849;SDS011;1940;51.052;13.678;2023-11-18T01:54:59;6.00;;;3.40;;
3849;SDS011;1940;51.052;13.678;2023-11-18T01:57:25;4.10;;;2.90;;
3849;SDS011;1940;51.052;13.678;2023-11-18T01:59:52;3.70;;;2.50;;
3849;SDS011;1940;51.052;13.678;2023-11-18T02:02:19;7.30;;;3.10;;
3849;SDS011;1940;51.052;13.678;2023-11-18T02:04:46;4.60;;;3.00;;
3849;SDS011;1940;51.052;13.678;2023-11-18T02:07:12;6.17;;;2.90;;
3849;SDS011;1940;51.052;13.678;2023-11-18T02:09:40;4.93;;;3.13;;
3849;SDS011;1940;51.052;13.678;2023-11-18T02:14:48;3.93;;;2.43;;
3849;SDS011;1940;51.052;13.678;2023-11-18T02:17:14;6.17;;;2.93;;
3849;SDS011;1940;51.052;13.678;2023-11-18T02:19:44;4.67;;;2.97;;
3849;SDS011;1940;51.052;13.678;2023-11-18T02:22:10;4.90;;;2.60;;
3849;SDS011;1940;51.052;13.678;2023-11-18T02:24:38;4.63;;;3.10;;
3849;SDS011;1940;51.052;13.678;2023-11-18T02:27:06;4.87;;;2.90;;
3849;SDS011;1940;51.052;13.678;2023-11-18T02:29:33;5.37;;;2.97;;
3849;SDS011;1940;51.052;13.678;2023-11-18T02:32:07;5.63;;;3.40;;
3849;SDS011;1940;51.052;13.678;2023-11-18T02:34:40;4.37;;;2.87;;
3849;SDS011;1940;51.052;13.678;2023-11-18T02:37:12;5.87;;;3.10;;
3849;SDS011;1940;51.052;13.678;2023-11-18T02:39:42;5.40;;;3.30;;
3849;SDS011;1940;51.052;13.678;2023-11-18T02:42:10;4.00;;;2.93;;
3849;SDS011;1940;51.052;13.678;2023-11-18T02:44:38;5.00;;;3.33;;
3849;SDS011;1940;51.052;13.678;2023-11-18T02:47:08;5.10;;;3.40;;
3849;SDS011;1940;51.052;13.678;2023-11-18T02:49:34;3.77;;;2.70;;
3849;SDS011;1940;51.052;13.678;2023-11-18T02:52:00;3.70;;;2.77;;
3849;SDS011;1940;51.052;13.678;2023-11-18T02:54:26;4.00;;;2.83;;
3849;SDS011;1940;51.052;13.678;2023-11-18T02:56:51;5.43;;;3.30;;
3849;SDS011;1940;51.052;13.678;2023-11-18T02:59:17;4.73;;;3.60;;
3849;SDS011;1940;51.052;13.678;2023-11-18T03:01:43;4.97;;;3.07;;
3849;SDS011;1940;51.052;13.678;2023-11-18T03:04:09;5.67;;;3.67;;
3849;SDS011;1940;51.052;13.678;2023-11-18T03:06:35;4.97;;;3.43;;
3849;SDS011;1940;51.052;13.678;2023-11-18T03:09:01;4.20;;;3.07;;
3849;SDS011;1940;51.052;13.678;2023-11-18T03:11:29;6.37;;;3.63;;
3849;SDS011;1940;51.052;13.678;2023-11-18T03:13:56;5.33;;;3.20;;
3849;SDS011;1940;51.052;13.678;2023-11-18T03:16:22;5.90;;;3.50;;
3849;SDS011;1940;51.052;13.678;2023-11-18T03:18:49;5.13;;;3.40;;
3849;SDS011;1940;51.052;13.678;2023-11-18T03:21:15;5.23;;;3.70;;
3849;SDS011;1940;51.052;13.678;2023-11-18T03:23:41;6.33;;;3.37;;
3849;SDS011;1940;51.052;13.678;2023-11-18T03:26:07;7.93;;;4.00;;
3849;SDS011;1940;51.052;13.678;2023-11-18T03:28:36;6.37;;;3.97;;
3849;SDS011;1940;51.052;13.678;2023-11-18T03:31:03;6.90;;;4.00;;
3849;SDS011;1940;51.052;13.678;2023-11-18T03:33:29;5.47;;;3.50;;
3849;SDS011;1940;51.052;13.678;2023-11-18T03:35:55;7.97;;;4.00;;
3849;SDS011;1940;51.052;13.678;2023-11-18T03:38:21;6.13;;;3.33;;
3849;SDS011;1940;51.052;13.678;2023-11-18T03:40:53;6.20;;;3.80;;
3849;SDS011;1940;51.052;13.678;2023-11-18T03:43:19;5.70;;;3.70;;
3849;SDS011;1940;51.052;13.678;2023-11-18T03:45:45;13.10;;;4.13;;
3849;SDS011;1940;51.052;13.678;2023-11-18T03:48:10;11.90;;;4.10;;
3849;SDS011;1940;51.052;13.678;2023-11-18T03:50:39;6.63;;;3.83;;
3849;SDS011;1940;51.052;13.678;2023-11-18T03:53:05;8.67;;;4.27;;
3849;SDS011;1940;51.052;13.678;2023-11-18T03:55:31;7.60;;;4.40;;
3849;SDS011;1940;51.052;13.678;2023-11-18T03:57:56;8.07;;;4.13;;
3849;SDS011;1940;51.052;13.678;2023-11-18T04:00:22;7.77;;;4.27;;
3849;SDS011;1940;51.052;13.678;2023-11-18T04:02:54;6.53;;;4.30;;
3849;SDS011;1940;51.052;13.678;2023-11-18T04:05:23;6.47;;;4.23;;
3849;SDS011;1940;51.052;13.678;2023-11-18T04:07:49;9.50;;;5.03;;
3849;SDS011;1940;51.052;13.678;2023-11-18T04:10:14;7.00;;;4.20;;
3849;SDS011;1940;51.052;13.678;2023-11-18T04:12:40;6.03;;;3.90;;
3849;SDS011;1940;51.052;13.678;2023-11-18T04:15:06;9.03;;;3.67;;
3849;SDS011;1940;51.052;13.678;2023-11-18T04:17:32;6.53;;;3.80;;
3849;SDS011;1940;51.052;13.678;2023-11-18T04:19:58;8.23;;;3.90;;
3849;SDS011;1940;51.052;13.678;2023-11-18T04:22:24;8.80;;;4.27;;
3849;SDS011;1940;51.052;13.678;2023-11-18T04:24:50;7.67;;;3.90;;
3849;SDS011;1940;51.052;13.678;2023-11-18T04:27:15;15.53;;;4.90;;
3849;SDS011;1940;51.052;13.678;2023-11-18T04:29:41;5.60;;;3.40;;
3849;SDS011;1940;51.052;13.678;2023-11-18T04:32:07;5.63;;;3.53;;
3849;SDS011;1940;51.052;13.678;2023-11-18T04:34:35;5.87;;;3.27;;
3849;SDS011;1940;51.052;13.678;2023-11-18T04:37:02;5.97;;;3.93;;
3849;SDS011;1940;51.052;13.678;2023-11-18T04:39:28;6.27;;;4.17;;
3849;SDS011;1940;51.052;13.678;2023-11-18T04:41:57;5.93;;;3.53;;
3849;SDS011;1940;51.052;13.678;2023-11-18T04:44:22;6.00;;;3.87;;
3849;SDS011;1940;51.052;13.678;2023-11-18T04:46:48;5.70;;;3.50;;
3849;SDS011;1940;51.052;13.678;2023-11-18T04:49:13;5.57;;;3.60;;
3849;SDS011;1940;51.052;13.678;2023-11-18T04:51:39;11.23;;;4.10;;
3849;SDS011;1940;51.052;13.678;2023-11-18T04:54:05;5.77;;;3.53;;
3849;SDS011;1940;51.052;13.678;2023-11-18T04:56:32;5.30;;;3.37;;
3849;SDS011;1940;51.052;13.678;2023-11-18T04:59:00;5.80;;;3.40;;
3849;SDS011;1940;51.052;13.678;2023-11-18T05:01:26;5.57;;;3.83;;
3849;SDS011;1940;51.052;13.678;2023-11-18T05:03:51;5.60;;;3.53;;
3849;SDS011;1940;51.052;13.678;2023-11-18T05:06:17;7.57;;;3.93;;
3849;SDS011;1940;51.052;13.678;2023-11-18T05:08:44;5.87;;;3.73;;
3849;SDS011;1940;51.052;13.678;2023-11-18T05:11:10;5.77;;;3.57;;
3849;SDS011;1940;51.052;13.678;2023-11-18T05:13:37;9.00;;;3.83;;
3849;SDS011;1940;51.052;13.678;2023-11-18T05:16:05;6.00;;;3.60;;
3849;SDS011;1940;51.052;13.678;2023-11-18T05:18:31;4.80;;;3.50;;
3849;SDS011;1940;51.052;13.678;2023-11-18T05:21:00;6.60;;;4.07;;
3849;SDS011;1940;51.052;13.678;2023-11-18T05:23:27;7.63;;;4.70;;
3849;SDS011;1940;51.052;13.678;2023-11-18T05:25:54;7.07;;;3.50;;
3849;SDS011;1940;51.052;13.678;2023-11-18T05:28:21;7.60;;;4.43;;
3849;SDS011;1940;51.052;13.678;2023-11-18T05:30:47;9.13;;;4.30;;
3849;SDS011;1940;51.052;13.678;2023-11-18T05:33:12;6.10;;;3.70;;
3849;SDS011;1940;51.052;13.678;2023-11-18T05:35:42;6.53;;;3.73;;
3849;SDS011;1940;51.052;13.678;2023-11-18T05:38:17;7.67;;;4.13;;
3849;SDS011;1940;51.052;13.678;2023-11-18T05:40:46;9.10;;;4.30;;
3849;SDS011;1940;51.052;13.678;2023-11-18T05:43:21;7.30;;;3.77;;
3849;SDS011;1940;51.052;13.678;2023-11-18T05:45:53;6.57;;;4.30;;
3849;SDS011;1940;51.052;13.678;2023-11-18T05:48:37;5.50;;;3.80;;
3849;SDS011;1940;51.052;13.678;2023-11-18T05:51:03;6.13;;;3.73;;
3849;SDS011;1940;51.052;13.678;2023-11-18T05:53:28;7.83;;;3.93;;
3849;SDS011;1940;51.052;13.678;2023-11-18T05:55:54;5.70;;;3.53;;
3849;SDS011;1940;51.052;13.678;2023-11-18T05:58:20;8.90;;;4.63;;
3849;SDS011;1940;51.052;13.678;2023-11-18T06:00:46;6.07;;;3.57;;
3849;SDS011;1940;51.052;13.678;2023-11-18T06:03:12;7.60;;;4.13;;
3849;SDS011;1940;51.052;13.678;2023-11-18T06:05:37;7.20;;;3.97;;
3849;SDS011;1940;51.052;13.678;2023-11-18T06:08:03;6.63;;;3.73;;
3849;SDS011;1940;51.052;13.678;2023-11-18T06:10:29;10.27;;;4.03;;
3849;SDS011;1940;51.052;13.678;2023-11-18T06:12:57;6.17;;;4.13;;
3849;SDS011;1940;51.052;13.678;2023-11-18T06:15:23;6.97;;;3.80;;
3849;SDS011;1940;51.052;13.678;2023-11-18T06:17:49;7.13;;;4.07;;
3849;SDS011;1940;51.052;13.678;2023-11-18T06:20:14;6.00;;;3.67;;
3849;SDS011;1940;51.052;13.678;2023-11-18T06:22:42;8.27;;;4.93;;
3849;SDS011;1940;51.052;13.678;2023-11-18T06:25:07;7.50;;;4.40;;
3849;SDS011;1940;51.052;13.678;2023-11-18T06:27:33;6.67;;;4.00;;
3849;SDS011;1940;51.052;13.678;2023-11-18T06:29:59;7.53;;;4.43;;
3849;SDS011;1940;51.052;13.678;2023-11-18T06:32:24;5.67;;;3.87;;
3849;SDS011;1940;51.052;13.678;2023-11-18T06:34:51;8.30;;;4.73;;
3849;SDS011;1940;51.052;13.678;2023-11-18T06:37:17;6.97;;;4.30;;
3849;SDS011;1940;51.052;13.678;2023-11-18T06:39:42;7.80;;;4.30;;
3849;SDS011;1940;51.052;13.678;2023-11-18T06:42:10;9.40;;;5.30;;
3849;SDS011;1940;51.052;13.678;2023-11-18T06:44:36;6.60;;;4.13;;
3849;SDS011;1940;51.052;13.678;2023-11-18T06:47:02;10.03;;;5.03;;
3849;SDS011;1940;51.052;13.678;2023-11-18T06:49:30;7.57;;;4.63;;
3849;SDS011;1940;51.052;13.678;2023-11-18T06:51:59;10.30;;;5.40;;
3849;SDS011;1940;51.052;13.678;2023-11-18T06:54:28;15.30;;;5.30;;
3849;SDS011;1940;51.052;13.678;2023-11-18T06:56:54;9.00;;;4.57;;
3849;SDS011;1940;51.052;13.678;2023-11-18T06:59:19;9.20;;;4.97;;
3849;SDS011;1940;51.052;13.678;2023-11-18T07:01:45;7.47;;;3.97;;
3849;SDS011;1940;51.052;13.678;2023-11-18T07:04:11;7.73;;;4.73;;
3849;SDS011;1940;51.052;13.678;2023-11-18T07:06:37;11.27;;;4.83;;
3849;SDS011;1940;51.052;13.678;2023-11-18T07:09:03;6.70;;;4.43;;
3849;SDS011;1940;51.052;13.678;2023-11-18T07:11:42;7.73;;;4.47;;
3849;SDS011;1940;51.052;13.678;2023-11-18T07:14:08;8.30;;;3.90;;
3849;SDS011;1940;51.052;13.678;2023-11-18T07:16:34;6.53;;;4.00;;
3849;SDS011;1940;51.052;13.678;2023-11-18T07:19:00;11.53;;;4.07;;
3849;SDS011;1940;51.052;13.678;2023-11-18T07:21:25;5.60;;;3.73;;
3849;SDS011;1940;51.052;13.678;2023-11-18T07:23:51;6.70;;;4.00;;
3849;SDS011;1940;51.052;13.678;2023-11-18T07:26:16;7.50;;;4.23;;
3849;SDS011;1940;51.052;13.678;2023-11-18T07:28:42;8.57;;;4.60;;
3849;SDS011;1940;51.052;13.678;2023-11-18T07:31:09;7.00;;;4.20;;
3849;SDS011;1940;51.052;13.678;2023-11-18T07:33:34;5.90;;;4.17;;
3849;SDS011;1940;51.052;13.678;2023-11-18T07:36:00;7.57;;;3.63;;
3849;SDS011;1940;51.052;13.678;2023-11-18T07:38:27;7.17;;;3.80;;
3849;SDS011;1940;51.052;13.678;2023-11-18T07:40:54;9.27;;;4.37;;
3849;SDS011;1940;51.052;13.678;2023-11-18T07:43:21;6.93;;;4.17;;
3849;SDS011;1940;51.052;13.678;2023-11-18T07:45:47;8.90;;;4.33;;
3849;SDS011;1940;51.052;13.678;2023-11-18T07:48:15;5.13;;;3.73;;
3849;SDS011;1940;51.052;13.678;2023-11-18T07:50:42;6.13;;;3.97;;
3849;SDS011;1940;51.052;13.678;2023-11-18T07:53:09;6.53;;;4.10;;
3849;SDS011;1940;51.052;13.678;2023-11-18T07:55:36;6.10;;;4.07;;
3849;SDS011;1940;51.052;13.678;2023-11-18T07:58:04;11.73;;;4.70;;
3849;SDS011;1940;51.052;13.678;2023-11-18T08:00:35;7.50;;;4.33;;
3849;SDS011;1940;51.052;13.678;2023-11-18T08:03:03;8.10;;;4.50;;
3849;SDS011;1940;51.052;13.678;2023-11-18T08:05:32;9.97;;;5.00;;
3849;SDS011;1940;51.052;13.678;2023-11-18T08:07:58;8.37;;;4.67;;
3849;SDS011;1940;51.052;13.678;2023-11-18T08:10:24;10.10;;;4.73;;
3849;SDS011;1940;51.052;13.678;2023-11-18T08:12:49;13.77;;;4.67;;
3849;SDS011;1940;51.052;13.678;2023-11-18T08:15:17;8.50;;;4.77;;
3849;SDS011;1940;51.052;13.678;2023-11-18T08:17:43;9.43;;;4.90;;
3849;SDS011;1940;51.052;13.678;2023-11-18T08:20:09;7.77;;;4.50;;
3849;SDS011;1940;51.052;13.678;2023-11-18T08:22:39;17.47;;;5.47;;
3849;SDS011;1940;51.052;13.678;2023-11-18T08:25:06;9.27;;;4.23;;
3849;SDS011;1940;51.052;13.678;2023-11-18T08:27:34;8.23;;;3.97;;
3849;SDS011;1940;51.052;13.678;2023-11-18T08:30:00;7.40;;;4.40;;
3849;SDS011;1940;51.052;13.678;2023-11-18T08:32:30;7.53;;;3.80;;
3849;SDS011;1940;51.052;13.678;2023-11-18T08:34:56;7.40;;;4.80;;
3849;SDS011;1940;51.052;13.678;2023-11-18T08:37:21;5.67;;;4.17;;
3849;SDS011;1940;51.052;13.678;2023-11-18T08:39:47;7.63;;;4.30;;
3849;SDS011;1940;51.052;13.678;2023-11-18T08:42:12;8.97;;;5.07;;
3849;SDS011;1940;51.052;13.678;2023-11-18T08:44:39;7.63;;;4.47;;
3849;SDS011;1940;51.052;13.678;2023-11-18T08:47:05;7.17;;;4.30;;
3849;SDS011;1940;51.052;13.678;2023-11-18T08:52:11;7.07;;;4.53;;
3849;SDS011;1940;51.052;13.678;2023-11-18T08:54:37;8.57;;;5.07;;
3849;SDS011;1940;51.052;13.678;2023-11-18T08:57:24;9.83;;;5.10;;
3849;SDS011;1940;51.052;13.678;2023-11-18T08:59:50;7.83;;;4.93;;
3849;SDS011;1940;51.052;13.678;2023-11-18T09:02:19;7.43;;;4.77;;
3849;SDS011;1940;51.052;13.678;2023-11-18T09:04:51;7.63;;;5.03;;
3849;SDS011;1940;51.052;13.678;2023-11-18T09:07:20;7.67;;;4.30;;
3849;SDS011;1940;51.052;13.678;2023-11-18T09:09:46;7.97;;;4.53;;
3849;SDS011;1940;51.052;13.678;2023-11-18T09:12:14;7.90;;;4.37;;
3849;SDS011;1940;51.052;13.678;2023-11-18T09:14:39;9.13;;;5.00;;
3849;SDS011;1940;51.052;13.678;2023-11-18T09:17:07;7.93;;;4.53;;
3849;SDS011;1940;51.052;13.678;2023-11-18T09:19:34;9.00;;;4.20;;
3849;SDS011;1940;51.052;13.678;2023-11-18T09:22:00;7.07;;;4.33;;
3849;SDS011;1940;51.052;13.678;2023-11-18T09:24:25;7.33;;;4.80;;
3849;SDS011;1940;51.052;13.678;2023-11-18T09:26:51;9.77;;;5.70;;
3849;SDS011;1940;51.052;13.678;2023-11-18T09:29:17;7.90;;;5.00;;
3849;SDS011;1940;51.052;13.678;2023-11-18T09:31:46;8.67;;;4.60;;
3849;SDS011;1940;51.052;13.678;2023-11-18T09:34:14;14.27;;;6.30;;
3849;SDS011;1940;51.052;13.678;2023-11-18T09:36:42;10.23;;;4.43;;
3849;SDS011;1940;51.052;13.678;2023-11-18T09:39:08;6.70;;;4.20;;
3849;SDS011;1940;51.052;13.678;2023-11-18T09:41:35;9.17;;;5.37;;
3849;SDS011;1940;51.052;13.678;2023-11-18T09:44:00;7.93;;;4.80;;
3849;SDS011;1940;51.052;13.678;2023-11-18T09:46:27;6.27;;;4.43;;
3849;SDS011;1940;51.052;13.678;2023-11-18T09:51:41;7.90;;;5.10;;
3849;SDS011;1940;51.052;13.678;2023-11-18T09:54:12;8.70;;;4.67;;
3849;SDS011;1940;51.052;13.678;2023-11-18T10:00:00;9.80;;;5.60;;
3849;SDS011;1940;51.052;13.678;2023-11-18T10:02:44;7.60;;;4.57;;
3849;SDS011;1940;51.052;13.678;2023-11-18T10:05:11;6.30;;;4.30;;
3849;SDS011;1940;51.052;13.678;2023-11-18T10:07:39;7.33;;;4.90;;
3849;SDS011;1940;51.052;13.678;2023-11-18T10:10:10;7.30;;;4.97;;
3849;SDS011;1940;51.052;13.678;2023-11-18T10:12:45;6.43;;;4.27;;
3849;SDS011;1940;51.052;13.678;2023-11-18T10:15:17;7.20;;;4.37;;
3849;SDS011;1940;51.052;13.678;2023-11-18T10:17:48;8.33;;;5.30;;
3849;SDS011;1940;51.052;13.678;2023-11-18T10:20:42;8.13;;;5.00;;
3849;SDS011;1940;51.052;13.678;2023-11-18T10:23:09;8.53;;;4.80;;
3849;SDS011;1940;51.052;13.678;2023-11-18T10:25:36;7.17;;;4.60;;
3849;SDS011;1940;51.052;13.678;2023-11-18T10:28:07;8.27;;;5.40;;
3849;SDS011;1940;51.052;13.678;2023-11-18T10:30:44;10.37;;;5.40;;
3849;SDS011;1940;51.052;13.678;2023-11-18T10:33:14;8.43;;;5.37;;
3849;SDS011;1940;51.052;13.678;2023-11-18T10:35:48;10.30;;;4.90;;
3849;SDS011;1940;51.052;13.678;2023-11-18T10:38:18;9.57;;;5.07;;
3849;SDS011;1940;51.052;13.678;2023-11-18T10:40:43;6.57;;;4.60;;
3849;SDS011;1940;51.052;13.678;2023-11-18T10:43:10;6.70;;;4.10;;
3849;SDS011;1940;51.052;13.678;2023-11-18T10:45:35;5.83;;;3.57;;
3849;SDS011;1940;51.052;13.678;2023-11-18T10:48:06;5.63;;;3.73;;
3849;SDS011;1940;51.052;13.678;2023-11-18T10:50:33;3.43;;;2.57;;
3849;SDS011;1940;51.052;13.678;2023-11-18T10:52:59;3.73;;;2.90;;
3849;SDS011;1940;51.052;13.678;2023-11-18T10:55:35;3.20;;;2.50;;
3849;SDS011;1940;51.052;13.678;2023-11-18T10:58:02;3.17;;;2.00;;
3849;SDS011;1940;51.052;13.678;2023-11-18T11:00:29;2.03;;;1.83;;
3849;SDS011;1940;51.052;13.678;2023-11-18T11:03:14;2.23;;;1.80;;
3849;SDS011;1940;51.052;13.678;2023-11-18T11:05:41;4.23;;;2.23;;
3849;SDS011;1940;51.052;13.678;2023-11-18T11:08:08;1.80;;;1.70;;
3849;SDS011;1940;51.052;13.678;2023-11-18T11:10:38;2.30;;;1.90;;
3849;SDS011;1940;51.052;13.678;2023-11-18T11:13:10;2.50;;;1.63;;
3849;SDS011;1940;51.052;13.678;2023-11-18T11:15:40;2.23;;;1.80;;
3849;SDS011;1940;51.052;13.678;2023-11-18T11:18:11;1.90;;;1.70;;
3849;SDS011;1940;51.052;13.678;2023-11-18T11:21:44;3.20;;;2.60;;
3849;SDS011;1940;51.052;13.678;2023-11-18T11:34:53;9.50;;;3.63;;
3849;SDS011;1940;51.052;13.678;2023-11-18T11:37:22;3.90;;;2.30;;
3849;SDS011;1940;51.052;13.678;2023-11-18T11:39:50;4.23;;;2.30;;
3849;SDS011;1940;51.052;13.678;2023-11-18T11:42:18;5.00;;;2.80;;
3849;SDS011;1940;51.052;13.678;2023-11-18T11:44:48;4.33;;;2.73;;
3849;SDS011;1940;51.052;13.678;2023-11-18T11:47:14;9.00;;;4.33;;
3849;SDS011;1940;51.052;13.678;2023-11-18T11:49:45;8.10;;;3.43;;
3849;SDS011;1940;51.052;13.678;2023-11-18T11:52:32;6.30;;;2.83;;
3849;SDS011;1940;51.052;13.678;2023-11-18T11:57:55;6.07;;;3.30;;
3849;SDS011;1940;51.052;13.678;2023-11-18T12:00:23;2.80;;;2.17;;
3849;SDS011;1940;51.052;13.678;2023-11-18T12:02:51;2.97;;;1.87;;
3849;SDS011;1940;51.052;13.678;2023-11-18T12:05:24;2.20;;;1.90;;
3849;SDS011;1940;51.052;13.678;2023-11-18T12:07:51;2.93;;;2.20;;
3849;SDS011;1940;51.052;13.678;2023-11-18T12:10:20;3.67;;;2.20;;
3849;SDS011;1940;51.052;13.678;2023-11-18T12:12:47;2.40;;;2.10;;
3849;SDS011;1940;51.052;13.678;2023-11-18T12:15:13;2.73;;;2.10;;
3849;SDS011;1940;51.052;13.678;2023-11-18T12:18:27;2.97;;;2.33;;
3849;SDS011;1940;51.052;13.678;2023-11-18T12:20:39;3.17;;;2.40;;
3849;SDS011;1940;51.052;13.678;2023-11-18T12:23:12;3.37;;;2.40;;
3849;SDS011;1940;51.052;13.678;2023-11-18T12:25:45;2.80;;;2.20;;
3849;SDS011;1940;51.052;13.678;2023-11-18T12:28:17;2.97;;;2.27;;
3849;SDS011;1940;51.052;13.678;2023-11-18T12:30:51;2.53;;;2.10;;
3849;SDS011;1940;51.052;13.678;2023-11-18T12:33:21;3.20;;;2.40;;
3849;SDS011;1940;51.052;13.678;2023-11-18T12:41:39;4.50;;;2.97;;
3849;SDS011;1940;51.052;13.678;2023-11-18T12:49:16;4.10;;;3.20;;
3849;SDS011;1940;51.052;13.678;2023-11-18T12:51:48;3.60;;;2.80;;
3849;SDS011;1940;51.052;13.678;2023-11-18T12:54:18;3.40;;;2.50;;
3849;SDS011;1940;51.052;13.678;2023-11-18T12:56:44;6.90;;;3.50;;
3849;SDS011;1940;51.052;13.678;2023-11-18T12:59:16;6.37;;;3.03;;
3849;SDS011;1940;51.052;13.678;2023-11-18T13:01:52;5.00;;;2.97;;
3849;SDS011;1940;51.052;13.678;2023-11-18T13:04:23;4.50;;;3.10;;
3849;SDS011;1940;51.052;13.678;2023-11-18T13:06:50;7.50;;;3.50;;
3849;SDS011;1940;51.052;13.678;2023-11-18T13:09:16;9.23;;;3.67;;
3849;SDS011;1940;51.052;13.678;2023-11-18T13:11:57;5.43;;;3.70;;
3849;SDS011;1940;51.052;13.678;2023-11-18T13:14:26;6.93;;;4.10;;
3849;SDS011;1940;51.052;13.678;2023-11-18T13:16:53;6.33;;;3.87;;
3849;SDS011;1940;51.052;13.678;2023-11-18T13:19:27;4.23;;;2.83;;
3849;SDS011;1940;51.052;13.678;2023-11-18T13:22:00;5.60;;;3.70;;
3849;SDS011;1940;51.052;13.678;2023-11-18T13:24:28;3.73;;;3.10;;
3849;SDS011;1940;51.052;13.678;2023-11-18T13:26:57;3.37;;;2.90;;
3849;SDS011;1940;51.052;13.678;2023-11-18T13:29:28;4.13;;;2.77;;
3849;SDS011;1940;51.052;13.678;2023-11-18T13:31:54;5.80;;;3.30;;
3849;SDS011;1940;51.052;13.678;2023-11-18T13:34:21;4.17;;;2.77;;
3849;SDS011;1940;51.052;13.678;2023-11-18T13:36:47;44.80;;;6.10;;
3849;SDS011;1940;51.052;13.678;2023-11-18T13:39:18;10.30;;;3.50;;
3849;SDS011;1940;51.052;13.678;2023-11-18T13:41:44;6.00;;;3.60;;
3849;SDS011;1940;51.052;13.678;2023-11-18T13:44:35;4.60;;;3.10;;
3849;SDS011;1940;51.052;13.678;2023-11-18T13:47:03;4.13;;;3.10;;
3849;SDS011;1940;51.052;13.678;2023-11-18T13:49:36;7.97;;;4.10;;
3849;SDS011;1940;51.052;13.678;2023-11-18T13:52:05;5.33;;;3.80;;
3849;SDS011;1940;51.052;13.678;2023-11-18T13:54:36;7.30;;;3.97;;
3849;SDS011;1940;51.052;13.678;2023-11-18T13:57:03;4.87;;;3.30;;
3849;SDS011;1940;51.052;13.678;2023-11-18T13:59:30;4.67;;;3.67;;
3849;SDS011;1940;51.052;13.678;2023-11-18T14:01:57;5.77;;;4.20;;
3849;SDS011;1940;51.052;13.678;2023-11-18T14:04:24;5.47;;;3.70;;
3849;SDS011;1940;51.052;13.678;2023-11-18T14:06:51;4.60;;;3.30;;
3849;SDS011;1940;51.052;13.678;2023-11-18T14:09:18;6.73;;;4.00;;
3849;SDS011;1940;51.052;13.678;2023-11-18T14:11:46;7.53;;;4.57;;
3849;SDS011;1940;51.052;13.678;2023-11-18T14:14:13;5.53;;;4.10;;
3849;SDS011;1940;51.052;13.678;2023-11-18T14:16:39;6.63;;;4.60;;
3849;SDS011;1940;51.052;13.678;2023-11-18T14:19:05;7.70;;;4.80;;
3849;SDS011;1940;51.052;13.678;2023-11-18T14:21:31;6.10;;;4.27;;
3849;SDS011;1940;51.052;13.678;2023-11-18T14:23:57;7.20;;;4.80;;
3849;SDS011;1940;51.052;13.678;2023-11-18T14:26:27;8.67;;;5.80;;
3849;SDS011;1940;51.052;13.678;2023-11-18T14:28:54;8.80;;;5.67;;
3849;SDS011;1940;51.052;13.678;2023-11-18T14:31:20;7.13;;;5.10;;
3849;SDS011;1940;51.052;13.678;2023-11-18T14:33:47;7.23;;;5.20;;
3849;SDS011;1940;51.052;13.678;2023-11-18T14:36:13;8.07;;;5.53;;
3849;SDS011;1940;51.052;13.678;2023-11-18T14:38:39;7.70;;;5.07;;
3849;SDS011;1940;51.052;13.678;2023-11-18T14:41:05;7.63;;;5.40;;
3849;SDS011;1940;51.052;13.678;2023-11-18T14:43:32;8.77;;;6.33;;
3849;SDS011;1940;51.052;13.678;2023-11-18T14:45:58;9.37;;;5.57;;
3849;SDS011;1940;51.052;13.678;2023-11-18T14:48:25;10.20;;;6.50;;
3849;SDS011;1940;51.052;13.678;2023-11-18T14:50:50;12.17;;;7.73;;
3849;SDS011;1940;51.052;13.678;2023-11-18T14:53:16;10.30;;;6.83;;
3849;SDS011;1940;51.052;13.678;2023-11-18T14:55:42;10.90;;;7.17;;
3849;SDS011;1940;51.052;13.678;2023-11-18T14:58:08;12.90;;;8.10;;
3849;SDS011;1940;51.052;13.678;2023-11-18T15:00:36;8.07;;;5.70;;
3849;SDS011;1940;51.052;13.678;2023-11-18T15:03:02;11.30;;;6.70;;
3849;SDS011;1940;51.052;13.678;2023-11-18T15:05:28;10.20;;;6.20;;
3849;SDS011;1940;51.052;13.678;2023-11-18T15:07:56;10.77;;;7.00;;
3849;SDS011;1940;51.052;13.678;2023-11-18T15:10:24;10.70;;;6.57;;
3849;SDS011;1940;51.052;13.678;2023-11-18T15:12:51;11.87;;;7.57;;
3849;SDS011;1940;51.052;13.678;2023-11-18T15:15:21;13.23;;;8.13;;
3849;SDS011;1940;51.052;13.678;2023-11-18T15:17:47;13.43;;;8.53;;
3849;SDS011;1940;51.052;13.678;2023-11-18T15:20:16;15.30;;;7.83;;
3849;SDS011;1940;51.052;13.678;2023-11-18T15:22:48;11.27;;;7.40;;
3849;SDS011;1940;51.052;13.678;2023-11-18T15:25:14;12.13;;;7.43;;
3849;SDS011;1940;51.052;13.678;2023-11-18T15:27:42;12.50;;;7.50;;
3849;SDS011;1940;51.052;13.678;2023-11-18T15:30:09;12.37;;;7.27;;
3849;SDS011;1940;51.052;13.678;2023-11-18T15:32:36;15.00;;;7.87;;
3849;SDS011;1940;51.052;13.678;2023-11-18T15:35:03;16.40;;;8.90;;
3849;SDS011;1940;51.052;13.678;2023-11-18T15:37:33;14.30;;;8.60;;
3849;SDS011;1940;51.052;13.678;2023-11-18T15:40:03;19.20;;;9.67;;